Terminal Aerodrome Forecast
Issued by NWS Boston, MA

Home | Current Version | Previous Version | Text Only | Print | Product List | Glossary On
Versions: 1 2 3 4 5 6 7 8 9 10 11 12 13 14 15 16 17 18 19 20 21 22
000
FTUS41 KBOX 280825 AAA
TAFPVD
TAF AMD
KPVD 280825Z 2808/2906 00000KT P6SM SKC
     FM281600 14005KT P6SM FEW250
     FM290500 20006KT P6SM SCT140=

USA.gov is the U.S. government's official web portal to all federal, state and local government web resources and services.